Saturday, May 26, 2018, 6:12 AM EDT
Back to Local

KDAW, Skyhaven Airport

Location: Rochester, NH, United States Lat: 43.283
Local Time: 6:12 AM EDT (10:12 GMT) Lon: -70.917
Time Zone: US/Eastern Elev: 321 ft

Show me the last for .
Show Coded

Time T Td Feel RH Dir Speed Gust Alt SLP Vis Weather Sky Remarks
2018-05-26 05:51 63 56 - 77 - Calm - 29.69 29.68 10 FEW120 None
2018-05-26 04:51 64 54 - 69 - Calm - 29.68 29.67 10 CLR None
2018-05-26 03:51 64 54 - 69 - Calm - 29.67 29.66 10 CLR None
2018-05-26 02:51 68 53 - 58 - Calm - 29.68 29.66 10 CLR None
2018-05-26 01:51 70 53 - 55 - Calm - 29.69 29.67 10 FEW090 6-hr Min Temp (2am): 69.1°F
6-hr Max Temp (2am): 81.0°F
2018-05-26 00:51 71 54 76 54 - Calm - 29.69 29.68 10 OVC110 24-hr Min Temp (1am): 50.0°F
24-hr Max Temp (1am): 88.0°F
2018-05-25 23:51 74 53 77 48 - Calm - 29.70 29.69 10 BKN120 None
2018-05-25 22:51 76 51 77 41 Variable 5 - 29.70 29.68 10 CLR None
2018-05-25 21:51 78 49 - 35 Variable 5 - 29.71 29.70 10 FEW120 None
2018-05-25 20:51 78 49 - 35 - Calm - 29.71 29.69 10 CLR None
2018-05-25 19:51 81 49 - 32 Variable 3 - 29.71 29.69 10 CLR 6-hr Min Temp (8pm): 81.0°F
6-hr Max Temp (8pm): 88.0°F
2018-05-25 18:51 83 50 - 31 Variable 3 - 29.70 29.69 10 SCT090 None
2018-05-25 17:51 83 49 - 30 Variable 5 - 29.70 29.69 10 OVC085 None
2018-05-25 16:51 87 50 - 28 280° 8 25 29.70 29.69 10 CLR None
2018-05-25 15:51 86 48 - 26 Variable 6 - 29.71 29.70 10 FEW120 None
2018-05-25 14:51 87 48 - 26 Variable 6 17 29.72 29.71 10 CLR None
2018-05-25 13:51 87 47 - 24 300° 16 29 29.74 29.72 10 CLR 6-hr Min Temp (2pm): 68.0°F
6-hr Max Temp (2pm): 88.0°F
2018-05-25 12:51 86 51 - 30 300° 10 16 29.76 29.75 10 CLR None
2018-05-25 11:51 83 51 - 33 280° 8 - 29.79 29.78 10 CLR None
2018-05-25 10:51 80 53 - 39 Variable 6 20 29.82 29.81 10 CLR None
2018-05-25 09:51 76 53 77 45 Variable 5 - 29.85 29.83 10 CLR None
2018-05-25 08:51 71 51 76 49 Variable 5 - 29.86 29.85 10 CLR None
2018-05-25 07:51 68 51 - 54 Variable 3 - 29.88 29.87 10 CLR 6-hr Min Temp (8am): 50.0°F
6-hr Max Temp (8am): 68.0°F
2018-05-25 06:51 61 51 - 69 - Calm - 29.89 29.88 10 CLR None

Support USWX by starting your Amazon purchase here.